Time;durP1;ratioP1;P1;durP2;ratioP2;P2;SDS_P1;SDS_P2;PMS_P1;PMS_P2;Temp;Humidity;BMP_temperature;BMP_pressure;BME280_temperature;BME280_humidity;BME280_pressure;Samples;Min_cycle;Max_cycle;Signal;HPM_P1;HPM_P2
2021/10/23 00:00:07;;;;;;;10.05;1.20;;;;;;;9.96;67.69;102398.22;5073386;28;20041;-43
2021/10/23 00:02:41;;;;;;;9.00;0.98;;;;;;;9.92;67.51;102389.50;5073035;28;20044;-35
2021/10/23 00:05:09;;;;;;;6.65;1.00;;;;;;;9.92;67.48;102388.66;5073560;28;20048;-35
2021/10/23 00:07:37;;;;;;;6.82;1.20;;;;;;;9.90;67.27;102382.50;5072693;28;20049;-35
2021/10/23 00:10:07;;;;;;;10.88;1.17;;;;;;;9.87;67.05;102386.66;5073135;28;20063;-32
2021/10/23 00:12:35;;;;;;;5.95;0.80;;;;;;;9.84;66.61;102377.94;5073196;28;20044;-34
2021/10/23 00:15:03;;;;;;;8.38;1.52;;;;;;;9.81;66.15;102384.03;5072523;28;20406;-40
2021/10/23 00:17:31;;;;;;;5.45;1.05;;;;;;;9.79;66.00;102375.13;5072950;28;20048;-37
2021/10/23 00:20:00;;;;;;;5.57;0.90;;;;;;;9.77;66.07;102380.09;5072299;28;20516;-37
2021/10/23 00:22:28;;;;;;;7.85;0.90;;;;;;;9.76;66.47;102381.19;5072440;28;20044;-38
2021/10/23 00:24:56;;;;;;;7.65;1.40;;;;;;;9.75;66.55;102374.78;5073023;28;20052;-36
2021/10/23 00:27:25;;;;;;;6.50;1.02;;;;;;;9.73;66.92;102379.75;5069701;28;20131;-35
2021/10/23 00:29:53;;;;;;;7.43;1.02;;;;;;;9.70;66.85;102377.47;5072061;28;20051;-36
2021/10/23 00:32:22;;;;;;;8.52;1.33;;;;;;;9.68;66.97;102374.94;5072813;28;20041;-41
2021/10/23 00:34:50;;;;;;;7.38;1.25;;;;;;;9.67;67.07;102378.00;5072815;28;20048;-37
2021/10/23 00:37:17;;;;;;;6.82;1.10;;;;;;;9.66;67.13;102385.50;5072069;28;20048;-33
2021/10/23 00:39:45;;;;;;;6.25;1.00;;;;;;;9.63;67.27;102382.38;5072395;28;20048;-36
2021/10/23 00:42:14;;;;;;;9.50;1.40;;;;;;;9.61;67.10;102390.16;5072422;28;20047;-39
2021/10/23 00:44:45;;;;;;;9.07;1.27;;;;;;;9.58;67.20;102379.53;5072006;28;20083;-40
2021/10/23 00:47:14;;;;;;;6.50;1.00;;;;;;;9.56;67.32;102378.94;5073048;28;20063;-35
2021/10/23 00:49:42;;;;;;;6.75;0.95;;;;;;;9.54;67.63;102376.41;5071655;28;20044;-35
2021/10/23 00:52:10;;;;;;;7.88;1.38;;;;;;;9.52;67.82;102377.75;5072543;28;20063;-35
2021/10/23 00:54:39;;;;;;;7.88;1.23;;;;;;;9.51;67.67;102390.00;5071850;28;20044;-40
2021/10/23 00:57:07;;;;;;;7.43;0.90;;;;;;;9.49;67.78;102384.69;5071761;28;20056;-37
2021/10/23 00:59:36;;;;;;;9.18;1.17;;;;;;;9.47;67.88;102386.03;5072150;28;20039;-41
2021/10/23 01:02:05;;;;;;;6.55;0.93;;;;;;;9.46;67.94;102389.91;5072236;28;20041;-41
2021/10/23 01:04:34;;;;;;;6.47;1.10;;;;;;;9.44;67.90;102395.75;5071449;28;20040;-35
2021/10/23 01:07:02;;;;;;;12.98;1.10;;;;;;;9.43;68.12;102408.00;5072240;28;20044;-36
2021/10/23 01:09:32;;;;;;;7.85;1.00;;;;;;;9.42;68.37;102397.09;5071616;28;20049;-35
2021/10/23 01:12:01;;;;;;;7.60;1.23;;;;;;;9.41;68.22;102403.75;5071605;28;20079;-40
2021/10/23 01:14:28;;;;;;;7.00;1.20;;;;;;;9.40;68.25;102394.56;5072025;28;20497;-41
2021/10/23 01:16:56;;;;;;;6.82;0.98;;;;;;;9.41;68.42;102404.59;5071861;28;20054;-35
2021/10/23 01:19:25;;;;;;;6.55;0.95;;;;;;;9.41;68.88;102400.97;5071138;28;20070;-38
2021/10/23 01:21:55;;;;;;;6.22;1.00;;;;;;;9.42;68.77;102408.25;5071645;28;20048;-37
2021/10/23 01:24:23;;;;;;;9.15;1.20;;;;;;;9.43;68.92;102415.50;5071922;28;20041;-39
2021/10/23 01:26:52;;;;;;;7.78;1.50;;;;;;;9.42;69.22;102425.81;5071026;28;20557;-39
2021/10/23 01:29:22;;;;;;;7.38;1.00;;;;;;;9.43;69.09;102415.50;5071646;28;20040;-37
2021/10/23 01:31:53;;;;;;;11.18;1.73;;;;;;;9.44;69.32;102418.03;5070227;28;20053;-35
2021/10/23 01:34:22;;;;;;;5.93;1.15;;;;;;;9.44;69.00;102422.75;5071610;28;20119;-36
2021/10/23 01:36:53;;;;;;;6.60;0.85;;;;;;;9.44;69.11;102428.34;5070093;28;20044;-35
2021/10/23 01:39:24;;;;;;;6.57;1.20;;;;;;;9.44;69.20;102436.69;5071274;28;20049;-36
2021/10/23 01:41:52;;;;;;;6.65;1.00;;;;;;;9.43;69.09;102438.63;5071361;28;20067;-34
2021/10/23 01:44:24;;;;;;;7.22;0.98;;;;;;;9.40;69.17;102433.56;5071667;28;20059;-35
2021/10/23 01:46:52;;;;;;;8.07;1.13;;;;;;;9.38;69.02;102434.94;5067168;28;20044;-37
2021/10/23 01:49:20;;;;;;;7.28;0.85;;;;;;;9.36;68.89;102434.34;5071838;28;20070;-42
2021/10/23 01:51:48;;;;;;;5.55;1.00;;;;;;;9.32;68.69;102437.63;5070596;28;20045;-36
2021/10/23 01:54:16;;;;;;;6.40;1.67;;;;;;;9.30;68.64;102420.31;5071163;28;20055;-33
2021/10/23 01:56:46;;;;;;;7.32;1.30;;;;;;;9.29;68.58;102428.94;5070916;28;20392;-35
2021/10/23 01:59:14;;;;;;;6.72;1.20;;;;;;;9.28;69.00;102424.47;5071278;28;20505;-32
2021/10/23 02:01:41;;;;;;;7.82;1.00;;;;;;;9.25;69.23;102427.75;5070379;28;20123;-35
2021/10/23 02:04:09;;;;;;;7.15;1.25;;;;;;;9.21;69.17;102438.53;5071779;28;20055;-38
2021/10/23 02:06:37;;;;;;;7.53;1.35;;;;;;;9.19;69.08;102432.38;5071093;28;20553;-38
2021/10/23 02:09:05;;;;;;;7.25;1.10;;;;;;;9.19;69.00;102432.38;5070680;28;20068;-33
2021/10/23 02:11:32;;;;;;;6.90;1.20;;;;;;;9.18;68.86;102436.28;5070933;28;20494;-38
2021/10/23 02:14:02;;;;;;;7.28;0.90;;;;;;;9.18;68.93;102435.44;5070568;28;20048;-40
2021/10/23 02:16:29;;;;;;;4.45;1.08;;;;;;;9.17;69.09;102426.22;5071258;28;20056;-39
2021/10/23 02:18:57;;;;;;;6.03;0.85;;;;;;;9.19;69.07;102425.97;5070946;28;20048;-36
2021/10/23 02:21:25;;;;;;;6.45;1.10;;;;;;;9.21;68.96;102429.34;5069337;28;20047;-36
2021/10/23 02:23:52;;;;;;;5.68;0.82;;;;;;;9.22;69.12;102434.66;5069762;28;20056;-37
2021/10/23 02:26:20;;;;;;;5.32;0.85;;;;;;;9.23;69.10;102422.41;5057716;28;20410;-34
2021/10/23 02:28:48;;;;;;;9.07;1.05;;;;;;;9.23;68.96;102430.78;5070214;28;20490;-35
2021/10/23 02:31:18;;;;;;;4.97;1.00;;;;;;;9.20;69.36;102428.50;5070942;28;20068;-33
2021/10/23 02:33:46;;;;;;;5.95;1.20;;;;;;;9.20;69.39;102434.06;5070750;28;20056;-36
2021/10/23 02:36:15;;;;;;;4.80;0.88;;;;;;;9.19;69.36;102437.13;5070430;28;20460;-38
2021/10/23 02:38:42;;;;;;;5.53;0.82;;;;;;;9.19;69.76;102435.16;5070752;28;20053;-35
2021/10/23 02:41:10;;;;;;;7.25;1.00;;;;;;;9.17;69.76;102434.59;5070607;28;20047;-36
2021/10/23 02:43:38;;;;;;;4.95;0.88;;;;;;;9.15;69.34;102431.22;5071436;28;20040;-42
2021/10/23 02:46:05;;;;;;;5.20;0.80;;;;;;;9.13;69.30;102433.41;5075280;28;20520;-38
2021/10/23 02:48:34;;;;;;;5.30;0.77;;;;;;;9.12;69.06;102434.50;5074516;28;20045;-38
2021/10/23 02:51:02;;;;;;;8.45;0.80;;;;;;;9.09;68.51;102435.00;5074315;28;20036;-38
2021/10/23 02:53:30;;;;;;;6.55;1.00;;;;;;;9.07;68.69;102441.91;5074269;28;20052;-39
2021/10/23 02:55:58;;;;;;;3.83;0.70;;;;;;;9.04;68.20;102447.97;5074442;28;20052;-37
2021/10/23 02:58:27;;;;;;;4.60;0.90;;;;;;;9.01;68.11;102446.53;5074395;28;20052;-38
2021/10/23 03:00:54;;;;;;;5.20;0.90;;;;;;;8.97;67.89;102446.19;5074570;28;20048;-34
2021/10/23 03:03:23;;;;;;;5.50;1.05;;;;;;;8.94;67.76;102445.84;5073817;28;20071;-31
2021/10/23 03:05:52;;;;;;;4.68;1.48;;;;;;;8.92;67.80;102442.47;5074446;28;20053;-37
2021/10/23 03:08:20;;;;;;;4.40;1.02;;;;;;;8.90;67.96;102439.09;5073807;28;20037;-37
2021/10/23 03:10:47;;;;;;;9.15;1.10;;;;;;;8.90;67.96;102444.66;5073584;28;20394;-37
2021/10/23 03:13:17;;;;;;;3.72;0.60;;;;;;;8.91;67.76;102451.91;5074501;28;20040;-38
2021/10/23 03:15:45;;;;;;;6.95;0.80;;;;;;;8.91;68.22;102447.19;5074227;28;20049;-37
2021/10/23 03:18:13;;;;;;;6.18;0.90;;;;;;;8.93;68.24;102441.38;5073670;28;20051;-41
2021/10/23 03:20:41;;;;;;;4.03;0.80;;;;;;;8.91;68.40;102438.84;5074030;28;20044;-38
2021/10/23 03:23:15;;;;;;;4.05;0.75;;;;;;;8.93;68.66;102436.66;5074101;28;20051;-34
2021/10/23 03:25:43;;;;;;;3.28;0.70;;;;;;;8.96;68.43;102441.72;5068223;28;20820;-40
2021/10/23 03:28:11;;;;;;;5.43;0.70;;;;;;;8.98;68.38;102438.69;5074141;28;20051;-37
2021/10/23 03:30:39;;;;;;;5.60;0.80;;;;;;;8.98;68.01;102439.53;5073816;28;20052;-34
2021/10/23 03:33:07;;;;;;;3.10;0.60;;;;;;;9.00;68.29;102444.81;5073029;28;20048;-38
2021/10/23 03:35:34;;;;;;;9.98;1.05;;;;;;;9.02;68.26;102442.63;5073820;28;20646;-37
2021/10/23 03:38:03;;;;;;;7.22;1.00;;;;;;;9.04;68.89;102445.19;5073881;28;20454;-38
2021/10/23 03:40:32;;;;;;;6.45;0.90;;;;;;;9.05;69.25;102453.28;5073253;28;20455;-35
2021/10/23 03:43:00;;;;;;;5.43;1.00;;;;;;;9.07;69.33;102448.31;5073923;28;20060;-36
2021/10/23 03:45:28;;;;;;;4.50;0.90;;;;;;;9.09;69.47;102446.13;5073295;28;20063;-37
2021/10/23 03:47:55;;;;;;;5.75;0.85;;;;;;;9.11;69.40;102448.66;5073664;28;20049;-36
2021/10/23 03:50:24;;;;;;;7.38;0.70;;;;;;;9.13;69.61;102450.09;5073528;28;20037;-34
2021/10/23 03:52:54;;;;;;;5.82;0.90;;;;;;;9.19;69.55;102454.66;5062044;28;20444;-43
2021/10/23 03:55:22;;;;;;;6.55;1.00;;;;;;;9.22;69.67;102456.94;5072571;28;20048;-42
2021/10/23 03:57:52;;;;;;;5.65;0.80;;;;;;;9.28;70.15;102458.72;5073665;28;20072;-36
2021/10/23 04:00:19;;;;;;;8.45;1.20;;;;;;;9.33;70.36;102469.13;5072782;28;20041;-37
2021/10/23 04:02:47;;;;;;;5.97;1.00;;;;;;;9.36;70.64;102471.41;5073626;28;20040;-37
2021/10/23 04:05:15;;;;;;;6.93;1.33;;;;;;;9.37;70.88;102467.53;5073549;28;20468;-36
2021/10/23 04:07:43;;;;;;;5.60;0.90;;;;;;;9.39;70.65;102467.28;5072474;28;20524;-42
2021/10/23 04:10:10;;;;;;;6.03;0.70;;;;;;;9.39;70.31;102472.84;5073072;28;20059;-41
2021/10/23 04:12:38;;;;;;;6.03;0.85;;;;;;;9.40;70.26;102474.50;5072582;28;20044;-41
2021/10/23 04:15:08;;;;;;;3.45;0.63;;;;;;;9.40;70.46;102472.56;5071973;28;20045;-35
2021/10/23 04:17:37;;;;;;;5.43;0.80;;;;;;;9.42;70.67;102469.53;5072604;28;20041;-33
2021/10/23 04:20:07;;;;;;;6.40;0.80;;;;;;;9.42;70.46;102467.59;5072721;28;20047;-38
2021/10/23 04:22:35;;;;;;;5.78;0.68;;;;;;;9.42;70.79;102475.09;5072287;28;20049;-42
2021/10/23 04:25:03;;;;;;;2.53;0.60;;;;;;;9.41;70.56;102470.63;5072871;28;20055;-35
2021/10/23 04:27:31;;;;;;;6.03;1.00;;;;;;;9.39;70.71;102484.84;5072664;28;20082;-36
2021/10/23 04:29:59;;;;;;;3.63;0.77;;;;;;;9.37;71.02;102486.19;5072953;28;20048;-36
2021/10/23 04:32:28;;;;;;;4.10;0.98;;;;;;;9.35;71.30;102486.44;5072354;28;20041;-37
2021/10/23 04:34:56;;;;;;;10.18;0.98;;;;;;;9.33;71.43;102492.25;5072761;28;20044;-32
2021/10/23 04:37:24;;;;;;;2.65;0.60;;;;;;;9.33;71.63;102489.47;5071247;28;20498;-35
2021/10/23 04:39:52;;;;;;;4.40;0.65;;;;;;;9.38;71.77;102496.22;5072734;28;20135;-34
2021/10/23 04:42:19;;;;;;;7.25;1.23;;;;;;;9.42;71.72;102497.41;5071949;28;20052;-35
2021/10/23 04:44:47;;;;;;;3.97;0.90;;;;;;;9.46;71.80;102504.16;5072334;28;20147;-39
2021/10/23 04:47:15;;;;;;;4.60;0.80;;;;;;;9.50;71.81;102510.94;5070464;28;20136;-32
2021/10/23 04:49:44;;;;;;;5.05;0.90;;;;;;;9.54;71.94;102512.97;5070815;28;20048;-35
2021/10/23 04:52:12;;;;;;;6.93;0.90;;;;;;;9.58;71.97;102507.75;5071619;28;20467;-37
2021/10/23 04:54:40;;;;;;;5.25;0.90;;;;;;;9.62;72.03;102504.16;5072113;28;20044;-38
2021/10/23 04:57:07;;;;;;;6.18;0.85;;;;;;;9.68;72.35;102507.91;5071329;28;20059;-34
2021/10/23 04:59:35;;;;;;;5.22;0.88;;;;;;;9.71;72.27;102503.75;5072226;28;20144;-37
2021/10/23 05:02:03;;;;;;;6.30;0.90;;;;;;;9.74;71.98;102509.69;5072211;28;20032;-30
2021/10/23 05:04:31;;;;;;;5.53;0.80;;;;;;;9.78;72.21;102512.81;5071524;28;20048;-31
2021/10/23 05:07:00;;;;;;;8.32;0.80;;;;;;;9.81;72.39;102501.97;5070560;28;20400;-38
2021/10/23 05:09:28;;;;;;;7.43;0.90;;;;;;;9.83;72.26;102516.50;5071924;28;20052;-41
2021/10/23 05:11:56;;;;;;;5.93;0.93;;;;;;;9.85;71.99;102511.53;5071275;28;20545;-35
2021/10/23 05:14:23;;;;;;;4.13;0.80;;;;;;;9.89;72.00;102517.44;5071847;28;20045;-39
2021/10/23 05:16:51;;;;;;;6.82;0.70;;;;;;;9.89;71.90;102518.28;5071358;28;20048;-38
2021/10/23 05:19:19;;;;;;;6.80;0.80;;;;;;;9.93;71.91;102524.22;5071660;28;20047;-38
2021/10/23 05:21:47;;;;;;;6.50;0.73;;;;;;;9.95;71.96;102519.22;5071942;28;20075;-30
2021/10/23 05:24:16;;;;;;;4.68;0.70;;;;;;;9.97;71.82;102529.03;5071084;28;20041;-36
2021/10/23 05:26:43;;;;;;;3.60;0.70;;;;;;;9.99;71.95;102526.81;5071778;28;20128;-39
2021/10/23 05:29:11;;;;;;;6.90;1.17;;;;;;;10.03;72.08;102538.31;5071476;28;20040;-32
2021/10/23 05:31:39;;;;;;;3.55;0.52;;;;;;;10.06;72.10;102536.94;5071057;28;20096;-40
2021/10/23 05:34:07;;;;;;;4.63;0.60;;;;;;;10.07;72.38;102530.28;5070964;28;20040;-40
2021/10/23 05:36:34;;;;;;;5.88;0.80;;;;;;;10.10;72.29;102529.78;5071939;28;20051;-39
2021/10/23 05:39:04;;;;;;;4.18;0.68;;;;;;;10.11;72.53;102521.16;5070611;28;20045;-37
2021/10/23 05:41:33;;;;;;;3.50;0.70;;;;;;;10.12;72.48;102525.63;5060471;28;20060;-39
2021/10/23 05:44:01;;;;;;;4.97;0.60;;;;;;;10.14;72.61;102517.00;5071227;28;20071;-39
2021/10/23 05:46:29;;;;;;;3.28;0.70;;;;;;;10.14;72.65;102511.44;5070944;28;20040;-31
2021/10/23 05:48:56;;;;;;;2.42;0.40;;;;;;;10.15;72.81;102521.47;5070972;28;20498;-34
2021/10/23 05:51:24;;;;;;;1.77;0.40;;;;;;;10.14;73.15;102520.63;5071428;28;20048;-34
2021/10/23 05:53:52;;;;;;;1.80;0.32;;;;;;;10.12;73.32;102531.19;5070767;28;20048;-41
2021/10/23 05:56:20;;;;;;;1.98;0.50;;;;;;;10.11;73.78;102539.81;5070704;28;20403;-35
2021/10/23 05:58:51;;;;;;;2.33;0.50;;;;;;;10.09;74.00;102540.06;5070695;28;20398;-37
2021/10/23 06:01:19;;;;;;;4.20;0.57;;;;;;;10.08;74.34;102548.69;5070922;28;20057;-39
2021/10/23 06:03:47;;;;;;;3.47;0.50;;;;;;;10.05;74.61;102546.41;5071124;28;20480;-35
2021/10/23 06:06:15;;;;;;;2.88;0.50;;;;;;;10.03;74.96;102557.81;5070352;28;20442;-37
2021/10/23 06:08:43;;;;;;;3.97;0.60;;;;;;;10.02;75.12;102562.56;5070390;28;20048;-39
2021/10/23 06:11:11;;;;;;;2.15;0.50;;;;;;;10.02;75.18;102567.28;5070685;28;20135;-36
2021/10/23 06:13:39;;;;;;;3.83;0.60;;;;;;;10.02;75.32;102562.56;5069691;28;20051;-37
2021/10/23 06:16:08;;;;;;;2.20;0.47;;;;;;;10.03;75.59;102563.41;5068685;28;20473;-37
2021/10/23 06:18:36;;;;;;;6.70;1.20;;;;;;;10.03;75.77;102563.41;5070060;28;20124;-33
2021/10/23 06:21:04;;;;;;;2.53;0.60;;;;;;;10.02;75.79;102568.13;5067623;28;20051;-39
2021/10/23 06:23:32;;;;;;;3.03;0.50;;;;;;;10.02;76.06;102570.91;5068861;28;20051;-34
2021/10/23 06:26:01;;;;;;;4.60;0.65;;;;;;;10.03;76.22;102569.81;5068085;28;20036;-33
2021/10/23 06:28:29;;;;;;;2.53;0.50;;;;;;;10.02;76.28;102570.91;5069729;28;20052;-37
2021/10/23 06:30:57;;;;;;;1.15;0.40;;;;;;;10.03;76.75;102578.19;5070068;28;20135;-39
2021/10/23 06:33:26;;;;;;;2.45;0.50;;;;;;;10.05;76.79;102580.72;5070248;28;20040;-36
2021/10/23 06:35:54;;;;;;;1.60;0.40;;;;;;;10.05;76.99;102579.88;5069371;28;20044;-43
2021/10/23 06:38:21;;;;;;;2.88;0.57;;;;;;;10.06;77.31;102578.78;5069940;28;20468;-43
2021/10/23 06:40:49;;;;;;;4.65;0.70;;;;;;;10.06;77.69;102579.63;5069591;28;20496;-32
2021/10/23 06:43:17;;;;;;;2.35;0.55;;;;;;;10.06;77.95;102576.00;5069820;28;20063;-33
2021/10/23 06:45:45;;;;;;;1.80;0.43;;;;;;;10.06;78.09;102579.63;5070006;28;20049;-32
2021/10/23 06:48:13;;;;;;;1.90;0.70;;;;;;;10.07;78.23;102584.13;5069653;28;20036;-33
2021/10/23 06:50:42;;;;;;;2.83;0.60;;;;;;;10.10;78.64;102585.56;5069731;28;20139;-34
2021/10/23 06:53:09;;;;;;;1.55;0.43;;;;;;;10.12;78.90;102591.72;5069641;28;20132;-35
2021/10/23 06:55:37;;;;;;;2.47;0.60;;;;;;;10.13;79.05;102587.84;5069701;28;20055;-34
2021/10/23 06:58:05;;;;;;;2.53;0.60;;;;;;;10.14;79.08;102595.13;5069764;28;20059;-39
2021/10/23 07:00:33;;;;;;;1.90;0.50;;;;;;;10.17;79.31;102603.81;5070033;28;20044;-37
2021/10/23 07:03:01;;;;;;;3.40;0.50;;;;;;;10.20;79.53;102605.25;5069343;28;20520;-39
2021/10/23 07:05:30;;;;;;;2.83;0.60;;;;;;;10.22;79.71;102600.28;5069766;28;20135;-31
2021/10/23 07:07:59;;;;;;;1.95;0.40;;;;;;;10.24;79.77;102610.09;5069508;28;20071;-35
2021/10/23 07:10:27;;;;;;;4.90;0.90;;;;;;;10.27;79.99;102612.38;5069248;28;20091;-37
2021/10/23 07:12:55;;;;;;;2.83;0.60;;;;;;;10.28;80.02;102608.50;5070410;28;20052;-32
2021/10/23 07:15:23;;;;;;;1.88;0.50;;;;;;;10.34;80.34;102620.59;5070399;28;20051;-40
2021/10/23 07:17:51;;;;;;;2.38;0.55;;;;;;;10.38;80.75;102630.16;5069671;28;20042;-41
2021/10/23 07:20:18;;;;;;;2.33;0.60;;;;;;;10.41;80.72;102629.59;5070386;28;20064;-35
2021/10/23 07:22:46;;;;;;;3.05;0.60;;;;;;;10.45;81.19;102636.38;5069977;28;20557;-37
2021/10/23 07:25:15;;;;;;;2.35;0.50;;;;;;;10.49;81.41;102633.94;5070072;28;20482;-36
2021/10/23 07:27:43;;;;;;;3.47;0.57;;;;;;;10.50;81.60;102633.66;5070195;28;20041;-34
2021/10/23 07:30:11;;;;;;;1.98;0.90;;;;;;;10.54;81.90;102631.22;5071986;28;20056;-35
2021/10/23 07:32:40;;;;;;;2.40;0.60;;;;;;;10.56;82.01;102632.66;5073071;28;20497;-34
2021/10/23 07:35:10;;;;;;;2.05;0.60;;;;;;;10.58;82.30;102629.63;5073804;28;20076;-33
2021/10/23 07:37:39;;;;;;;2.30;0.50;;;;;;;10.60;82.47;102635.75;5073166;28;20053;-39
2021/10/23 07:40:08;;;;;;;2.10;0.50;;;;;;;10.63;82.47;102638.03;5073763;28;20051;-32
2021/10/23 07:42:38;;;;;;;5.43;0.90;;;;;;;10.66;82.54;102632.78;5073514;28;20048;-36
2021/10/23 07:45:08;;;;;;;2.17;0.60;;;;;;;10.68;82.54;102641.75;5072238;28;20127;-39
2021/10/23 07:47:37;;;;;;;4.80;0.88;;;;;;;10.72;82.70;102646.84;5073471;28;20516;-32
2021/10/23 07:50:05;;;;;;;3.03;0.65;;;;;;;10.75;82.46;102657.50;5072374;28;20049;-35
2021/10/23 07:52:33;;;;;;;3.50;0.73;;;;;;;10.77;82.35;102658.09;5073090;28;20051;-34
2021/10/23 07:55:01;;;;;;;3.08;0.60;;;;;;;10.79;82.02;102658.69;5073304;28;20052;-36
2021/10/23 07:57:29;;;;;;;1.63;0.50;;;;;;;10.81;81.54;102657.28;5073406;28;20498;-37
2021/10/23 07:59:58;;;;;;;1.60;0.43;;;;;;;10.83;81.10;102659.84;5072807;28;20067;-39
2021/10/23 08:02:27;;;;;;;1.90;0.50;;;;;;;10.85;80.65;102664.06;5073290;28;20041;-37
2021/10/23 08:04:55;;;;;;;3.22;0.63;;;;;;;10.88;80.30;102662.72;5073346;28;20045;-36
2021/10/23 08:07:22;;;;;;;3.10;0.60;;;;;;;10.93;80.26;102662.78;5072861;28;20040;-33
2021/10/23 08:09:50;;;;;;;2.47;0.60;;;;;;;10.95;80.14;102664.22;5073196;28;20114;-35
2021/10/23 08:12:18;;;;;;;2.53;0.52;;;;;;;11.00;79.93;102666.22;5073119;28;20055;-34
2021/10/23 08:14:45;;;;;;;2.70;0.70;;;;;;;11.02;79.81;102672.41;5072095;28;20104;-36
2021/10/23 08:17:14;;;;;;;3.67;0.40;;;;;;;11.05;79.76;102674.69;5073474;28;20048;-39
2021/10/23 08:19:42;;;;;;;3.47;0.75;;;;;;;11.08;79.72;102673.31;5072320;28;20052;-39
2021/10/23 08:22:10;;;;;;;4.53;0.70;;;;;;;11.10;79.65;102671.97;5073146;28;20081;-33
2021/10/23 08:24:38;;;;;;;2.65;0.60;;;;;;;11.13;79.73;102674.25;5072643;28;20045;-33
2021/10/23 08:27:05;;;;;;;2.30;0.63;;;;;;;11.16;79.55;102681.28;5072425;28;20079;-36
2021/10/23 08:29:33;;;;;;;3.53;0.60;;;;;;;11.19;79.65;102681.56;5072617;28;20114;-36
2021/10/23 08:32:01;;;;;;;2.28;0.85;;;;;;;11.23;79.37;102677.16;5071597;28;20421;-34
2021/10/23 08:34:30;;;;;;;4.13;0.60;;;;;;;11.28;79.60;102684.78;5072074;28;20040;-39
2021/10/23 08:36:58;;;;;;;5.72;0.65;;;;;;;11.32;79.54;102684.00;5069481;28;20045;-38
2021/10/23 08:39:25;;;;;;;3.60;0.82;;;;;;;11.36;79.77;102681.53;5071072;28;20044;-35
2021/10/23 08:41:54;;;;;;;2.70;0.50;;;;;;;11.40;79.67;102680.72;5070135;28;20067;-35
2021/10/23 08:44:22;;;;;;;5.60;0.82;;;;;;;11.45;79.60;102679.97;5071187;28;20372;-40
2021/10/23 08:46:51;;;;;;;3.30;0.65;;;;;;;11.48;79.54;102678.59;5071912;28;20043;-35
2021/10/23 08:49:20;;;;;;;2.88;0.60;;;;;;;11.52;79.42;102683.41;5069803;28;20094;-35
2021/10/23 08:51:50;;;;;;;1.88;0.52;;;;;;;11.57;79.52;102680.69;5071684;28;20048;-36
2021/10/23 08:54:18;;;;;;;3.20;0.68;;;;;;;11.59;79.65;102683.22;5058814;28;20044;-31
2021/10/23 08:56:46;;;;;;;3.42;0.80;;;;;;;11.59;79.87;102672.03;5071666;28;20044;-34
2021/10/23 08:59:14;;;;;;;3.40;0.82;;;;;;;11.57;80.09;102689.06;5072306;28;20121;-36
2021/10/23 09:01:47;;;;;;;3.17;1.08;;;;;;;11.54;80.15;102684.00;5063833;28;20409;-37
2021/10/23 09:04:15;;;;;;;5.70;1.50;;;;;;;11.50;80.56;102691.22;5072020;28;20051;-37
2021/10/23 09:06:43;;;;;;;3.92;1.17;;;;;;;11.46;80.70;102692.00;5071130;28;20048;-37
2021/10/23 09:09:16;;;;;;;6.63;1.88;;;;;;;11.44;80.99;102691.41;5071410;28;20056;-36
2021/10/23 09:11:46;;;;;;;6.60;1.75;;;;;;;11.39;81.03;102698.63;5071690;28;20494;-34
2021/10/23 09:14:25;;;;;;;5.07;1.50;;;;;;;11.38;81.38;102698.91;5071946;28;20060;-33
2021/10/23 09:17:05;;;;;;;6.18;1.60;;;;;;;11.35;81.48;102703.06;5068064;28;20040;-39
2021/10/23 09:19:35;;;;;;;4.70;1.17;;;;;;;11.35;81.52;102716.19;5071943;28;20049;-32
2021/10/23 09:22:04;;;;;;;5.18;1.50;;;;;;;11.35;81.73;102713.38;5068408;28;20056;-38
2021/10/23 09:24:33;;;;;;;6.18;1.30;;;;;;;11.34;81.85;102718.13;5071566;28;20098;-38
2021/10/23 09:27:11;;;;;;;4.32;1.10;;;;;;;11.30;81.92;102716.94;5071654;28;20056;-37
2021/10/23 09:29:39;;;;;;;4.85;1.30;;;;;;;11.21;82.02;102729.66;5071819;28;20053;-34
2021/10/23 09:32:15;;;;;;;6.60;1.50;;;;;;;11.16;82.36;102738.00;5070827;28;20052;-30
2021/10/23 09:34:43;;;;;;;4.55;1.25;;;;;;;11.08;82.65;102738.44;5071662;28;20048;-34
2021/10/23 09:37:12;;;;;;;3.17;0.85;;;;;;;11.02;82.79;102734.72;5070713;28;20842;-38
2021/10/23 09:39:42;;;;;;;6.85;1.40;;;;;;;10.97;83.21;102742.19;5071597;28;20098;-33
2021/10/23 09:42:15;;;;;;;4.32;0.95;;;;;;;10.96;83.29;102743.28;5071492;28;20048;-40
2021/10/23 09:45:00;;;;;;;6.38;1.52;;;;;;;10.99;83.17;102748.38;5061083;28;20055;-37
2021/10/23 09:47:30;;;;;;;4.25;1.33;;;;;;;10.99;83.31;102751.16;5070992;28;20140;-38
2021/10/23 09:50:14;;;;;;;4.22;1.25;;;;;;;11.03;83.31;102757.91;5071474;28;20135;-36
2021/10/23 09:52:59;;;;;;;4.63;1.02;;;;;;;11.02;83.55;102753.41;5069934;28;20052;-39
2021/10/23 09:55:31;;;;;;;2.75;0.90;;;;;;;10.98;83.90;102758.69;5071189;28;20478;-40
2021/10/23 09:58:06;;;;;;;;;;;;;;;10.98;84.69;102766.22;5070258;28;20490;-34
2021/10/23 10:00:34;;;;;;;2.50;0.60;;;;;;;10.96;84.74;102762.84;5068288;28;19920;-37
2021/10/23 10:03:02;;;;;;;2.42;0.90;;;;;;;10.99;84.59;102770.72;5069665;28;20052;-42
2021/10/23 10:05:33;;;;;;;3.13;0.80;;;;;;;11.01;84.75;102765.69;5070733;28;20036;-37
2021/10/23 10:08:05;;;;;;;2.30;0.70;;;;;;;11.01;84.71;102763.75;5071076;28;20045;-37
2021/10/23 10:10:35;;;;;;;4.00;1.00;;;;;;;11.02;84.91;102764.59;5060665;28;20048;-36
2021/10/23 10:13:05;;;;;;;4.87;1.10;;;;;;;10.99;85.40;102759.53;5070159;28;20487;-35
2021/10/23 10:15:33;;;;;;;4.03;1.05;;;;;;;10.97;85.65;102758.94;5069950;28;20302;-34
2021/10/23 10:18:05;;;;;;;3.83;1.05;;;;;;;10.95;85.97;102766.72;5070751;28;20044;-36
2021/10/23 10:20:35;;;;;;;4.82;1.05;;;;;;;10.90;85.93;102767.50;5070569;28;20040;-34
2021/10/23 10:23:05;;;;;;;4.68;1.00;;;;;;;10.89;86.25;102765.78;5070885;28;20048;-39
2021/10/23 10:25:33;;;;;;;8.05;1.42;;;;;;;10.87;86.73;102754.03;5070948;28;20075;-39
2021/10/23 10:28:16;;;;;;;4.57;1.50;;;;;;;10.86;87.47;102740.31;5070259;28;20438;-40
2021/10/23 10:30:47;;;;;;;6.40;1.30;;;;;;;10.79;87.79;102736.88;5067497;28;20063;-35
2021/10/23 10:33:24;;;;;;;6.72;1.10;;;;;;;10.76;87.55;102737.38;5068898;28;20510;-40
2021/10/23 10:39:08;;;;;;;8.52;1.40;;;;;;;10.66;88.08;102736.09;5070147;28;20148;-34
2021/10/23 10:44:22;;;;;;;6.05;1.42;;;;;;;10.51;88.71;102741.44;5069747;28;20132;-39
2021/10/23 10:47:17;;;;;;;5.13;1.30;;;;;;;10.49;89.83;102743.63;5070085;28;20504;-36
2021/10/23 10:49:53;;;;;;;7.43;1.38;;;;;;;10.40;91.70;102735.91;5069634;28;20048;-33
2021/10/23 10:52:53;;;;;;;7.35;1.73;;;;;;;10.37;92.95;102734.50;5070219;28;20047;-39
2021/10/23 10:55:22;;;;;;;5.55;1.20;;;;;;;10.32;93.03;102737.19;5067594;28;20115;-37
2021/10/23 10:58:01;;;;;;;7.95;1.73;;;;;;;10.35;92.72;102733.91;5069727;28;20056;-36
2021/10/23 11:01:09;;;;;;;6.70;2.20;;;;;;;10.32;93.02;102726.88;5067825;28;20063;-37
2021/10/23 11:03:42;;;;;;;6.63;1.77;;;;;;;10.30;93.45;102726.28;5057138;28;20448;-41
2021/10/23 11:06:52;;;;;;;7.47;2.20;;;;;;;10.33;93.27;102722.13;5073547;28;20052;-38
2021/10/23 11:09:39;;;;;;;6.35;1.85;;;;;;;10.33;93.54;102725.78;5063794;28;20136;-40
2021/10/23 11:12:17;;;;;;;7.25;2.08;;;;;;;10.37;93.68;102723.34;5068928;28;20394;-35
2021/10/23 11:14:44;;;;;;;7.25;2.20;;;;;;;10.40;93.69;102724.75;5073148;28;20502;-40
2021/10/23 11:17:20;;;;;;;7.90;2.20;;;;;;;10.46;94.06;102720.94;5073146;28;20036;-32
2021/10/23 11:19:59;;;;;;;7.22;1.70;;;;;;;10.48;94.51;102719.59;5073007;28;20049;-37
2021/10/23 11:22:34;;;;;;;8.05;1.70;;;;;;;10.49;94.78;102717.66;5070276;28;20098;-31
2021/10/23 11:25:05;;;;;;;7.60;1.80;;;;;;;10.55;94.42;102713.88;5073137;28;20441;-40
2021/10/23 11:27:40;;;;;;;5.30;1.50;;;;;;;10.67;94.32;102709.88;5073041;28;20092;-36
2021/10/23 11:30:14;;;;;;;6.07;1.65;;;;;;;10.76;94.52;102715.88;5072517;28;20048;-35
2021/10/23 11:32:46;;;;;;;9.43;1.92;;;;;;;10.84;94.45;102720.19;5072287;28;20058;-34
2021/10/23 11:35:15;;;;;;;8.52;1.83;;;;;;;10.92;94.82;102723.41;5067971;28;20541;-33
2021/10/23 11:37:44;;;;;;;12.50;2.10;;;;;;;11.01;94.49;102730.22;5072624;28;20055;-33
2021/10/23 11:40:13;;;;;;;8.52;1.58;;;;;;;11.12;94.28;102727.59;5073038;28;20072;-37
2021/10/23 11:42:46;;;;;;;5.22;1.80;;;;;;;11.23;94.17;102727.47;5072796;28;20517;-36
2021/10/23 11:45:17;;;;;;;8.50;2.00;;;;;;;11.32;94.03;102725.09;5072518;28;20155;-36